Time;durP1;ratioP1;P1;durP2;ratioP2;P2;SDS_P1;SDS_P2;PMS_P1;PMS_P2;Temp;Humidity;BMP_temperature;BMP_pressure;BME280_temperature;BME280_humidity;BME280_pressure;Samples;Min_cycle;Max_cycle;Signal;HPM_P1;HPM_P2
2021/07/08 00:36:07;;;;;;;3.92;2.90;;;21.70;77.50;;;;;;5015332;28;20232;-89
2021/07/08 00:38:33;;;;;;;3.25;2.83;;;21.60;78.20;;;;;;5000549;28;20182;-89
2021/07/08 00:40:59;;;;;;;2.85;2.65;;;21.80;78.10;;;;;;5018524;28;20619;-88
2021/07/08 00:43:29;;;;;;;3.15;2.95;;;21.80;78.00;;;;;;5018835;28;20280;-89
2021/07/08 00:45:54;;;;;;;3.08;2.70;;;21.70;78.10;;;;;;5018928;28;20235;-89
2021/07/08 00:48:20;;;;;;;2.90;2.70;;;21.70;78.40;;;;;;5019050;28;20180;-89
2021/07/08 00:50:46;;;;;;;4.13;2.75;;;21.50;78.70;;;;;;5018822;28;20659;-89
2021/07/08 00:53:17;;;;;;;5.32;2.60;;;21.20;79.50;;;;;;5018525;28;20784;-88
2021/07/08 00:55:45;;;;;;;6.28;3.03;;;21.10;80.80;;;;;;5018806;28;20187;-89
2021/07/08 00:58:14;;;;;;;2.78;2.58;;;21.10;81.00;;;;;;5018361;28;20850;-89
2021/07/08 01:00:40;;;;;;;2.95;2.65;;;21.00;81.10;;;;;;5018225;28;20184;-89
2021/07/08 01:03:08;;;;;;;2.97;2.67;;;20.80;81.90;;;;;;5012260;28;20297;-89
2021/07/08 01:05:37;;;;;;;3.35;2.28;;;20.80;82.10;;;;;;4965597;28;20186;-89
2021/07/08 01:08:04;;;;;;;3.20;2.53;;;20.80;82.10;;;;;;4998830;28;20178;-88
2021/07/08 01:10:30;;;;;;;2.60;2.40;;;20.70;82.20;;;;;;4998391;28;20197;-89
2021/07/08 01:12:56;;;;;;;3.10;2.30;;;20.70;82.40;;;;;;4999268;28;20335;-89
2021/07/08 01:15:23;;;;;;;3.70;2.60;;;20.70;81.80;;;;;;4998467;28;20179;-89
2021/07/08 01:17:50;;;;;;;2.30;2.20;;;20.90;81.10;;;;;;4998554;28;20182;-89
2021/07/08 01:20:18;;;;;;;3.80;2.58;;;21.00;80.70;;;;;;4993010;28;20183;-89
2021/07/08 01:22:44;;;;;;;2.72;2.53;;;20.90;80.90;;;;;;4999354;28;20241;-89
2021/07/08 01:25:12;;;;;;;3.67;2.65;;;20.80;81.70;;;;;;5004528;28;20205;-89
2021/07/08 01:27:38;;;;;;;4.43;2.83;;;20.60;82.30;;;;;;4997302;28;20584;-89
2021/07/08 01:30:06;;;;;;;3.33;2.80;;;20.80;82.00;;;;;;4979902;28;20198;-88
2021/07/08 01:32:32;;;;;;;3.97;2.88;;;20.90;81.20;;;;;;4996993;28;20223;-88
2021/07/08 01:34:58;;;;;;;2.90;2.67;;;20.90;81.10;;;;;;4989957;28;20187;-89
2021/07/08 01:37:23;;;;;;;4.03;2.63;;;20.60;82.60;;;;;;4999439;28;20591;-89
2021/07/08 01:39:49;;;;;;;4.05;2.60;;;20.50;82.90;;;;;;5016896;28;20191;-89
2021/07/08 01:42:15;;;;;;;3.15;2.83;;;20.70;82.20;;;;;;4999346;28;20232;-89
2021/07/08 01:44:40;;;;;;;4.25;2.78;;;20.90;81.30;;;;;;4991710;28;20216;-89
2021/07/08 01:47:06;;;;;;;5.88;3.15;;;21.10;80.30;;;;;;4996583;28;20197;-89
2021/07/08 01:49:33;;;;;;;6.70;2.78;;;21.10;80.10;;;;;;4997322;28;20187;-89
2021/07/08 01:51:59;;;;;;;5.57;2.80;;;20.70;81.40;;;;;;4979310;28;20206;-88
2021/07/08 01:54:24;;;;;;;3.17;2.67;;;20.70;81.70;;;;;;4979649;28;20192;-89
2021/07/08 01:56:50;;;;;;;2.72;2.50;;;20.80;81.10;;;;;;4996801;28;20181;-89
2021/07/08 01:59:16;;;;;;;3.90;2.65;;;21.00;80.90;;;;;;4968551;28;20181;-89
2021/07/08 02:01:42;;;;;;;3.90;2.90;;;21.10;80.00;;;;;;5003293;28;20573;-89
2021/07/08 02:07:52;;;;;;;3.00;2.70;;;21.20;79.60;;;;;;5014485;28;20258;-89
2021/07/08 02:12:47;;;;;;;5.65;2.90;;;20.90;81.20;;;;;;5025005;28;20229;-89
2021/07/08 02:15:14;;;;;;;3.13;2.63;;;20.80;81.00;;;;;;5032081;28;20196;-90
2021/07/08 02:17:40;;;;;;;2.70;2.50;;;21.00;80.40;;;;;;5041887;28;20195;-90
2021/07/08 02:20:11;;;;;;;3.47;2.72;;;20.80;80.90;;;;;;5059228;28;20202;-90
2021/07/08 02:22:37;;;;;;;3.30;2.60;;;20.90;81.20;;;;;;5043320;28;20187;-90
2021/07/08 02:25:04;;;;;;;3.03;2.50;;;21.00;80.40;;;;;;5061888;28;20171;-89
2021/07/08 02:27:30;;;;;;;3.28;2.75;;;21.00;80.30;;;;;;5062401;28;20223;-89
2021/07/08 02:29:55;;;;;;;3.97;2.30;;;21.10;80.00;;;;;;5061515;28;20204;-89
2021/07/08 02:32:21;;;;;;;2.78;2.58;;;21.20;79.50;;;;;;5042591;28;20204;-90
2021/07/08 02:34:50;;;;;;;3.78;2.85;;;21.20;78.90;;;;;;5042164;28;20180;-90
2021/07/08 02:37:16;;;;;;;3.83;3.05;;;21.30;79.80;;;;;;5023750;28;20246;-90
2021/07/08 02:39:42;;;;;;;3.65;2.70;;;21.20;78.90;;;;;;5042316;28;20207;-90
2021/07/08 02:42:08;;;;;;;5.40;2.60;;;21.10;79.40;;;;;;5007386;28;20185;-89
2021/07/08 02:44:34;;;;;;;2.60;2.40;;;21.10;79.60;;;;;;5023236;28;20200;-91
2021/07/08 02:47:01;;;;;;;3.53;2.47;;;21.10;79.40;;;;;;5040962;28;20180;-90
2021/07/08 02:49:27;;;;;;;5.25;2.78;;;21.00;79.50;;;;;;5041184;28;20203;-91
2021/07/08 02:51:54;;;;;;;2.80;2.50;;;20.80;80.60;;;;;;5041181;28;20260;-90
2021/07/08 02:54:19;;;;;;;2.92;2.60;;;20.80;80.30;;;;;;5039670;28;20200;-90
2021/07/08 02:56:45;;;;;;;4.03;2.75;;;20.90;80.30;;;;;;5044078;28;20174;-90
2021/07/08 02:59:11;;;;;;;3.72;3.00;;;20.70;81.30;;;;;;5057604;28;20198;-91
2021/07/08 03:01:37;;;;;;;5.38;3.08;;;20.50;82.20;;;;;;5022809;28;20212;-90
2021/07/08 03:04:05;;;;;;;3.67;2.92;;;20.40;83.20;;;;;;5041712;28;20215;-90
2021/07/08 03:06:34;;;;;;;3.53;3.00;;;20.40;83.60;;;;;;5024618;28;20231;-89
2021/07/08 03:08:59;;;;;;;5.43;3.00;;;20.30;84.20;;;;;;5041850;28;20348;-90
2021/07/08 03:11:25;;;;;;;3.95;2.83;;;20.40;84.00;;;;;;5055122;28;20680;-92
2021/07/08 03:13:51;;;;;;;5.57;2.80;;;20.50;83.30;;;;;;5043753;28;20256;-90
2021/07/08 03:16:17;;;;;;;3.80;3.17;;;20.60;82.50;;;;;;5044945;28;20189;-91
2021/07/08 03:18:42;;;;;;;5.82;3.50;;;20.70;82.20;;;;;;5062774;28;20195;-90
2021/07/08 03:21:08;;;;;;;3.80;2.85;;;20.70;82.40;;;;;;5044827;28;20256;-90
2021/07/08 03:23:35;;;;;;;3.05;2.80;;;20.50;83.00;;;;;;5063113;28;20644;-90
2021/07/08 03:26:02;;;;;;;4.55;2.90;;;20.50;83.10;;;;;;5027140;28;20679;-90
2021/07/08 03:28:27;;;;;;;3.92;3.63;;;20.60;82.30;;;;;;5062892;28;20259;-90
2021/07/08 03:30:53;;;;;;;3.40;3.10;;;20.70;82.00;;;;;;5014057;28;20196;-90
2021/07/08 03:33:19;;;;;;;3.30;3.10;;;20.60;81.70;;;;;;5023348;28;20221;-90
2021/07/08 03:35:45;;;;;;;7.55;3.70;;;20.70;81.50;;;;;;5022889;28;20183;-89
2021/07/08 03:38:11;;;;;;;3.67;3.00;;;20.60;81.70;;;;;;5005423;28;20273;-91
2021/07/08 03:40:37;;;;;;;4.25;3.17;;;20.70;81.80;;;;;;5019302;28;20603;-90
2021/07/08 03:43:03;;;;;;;3.83;3.30;;;20.60;82.10;;;;;;5044152;28;20183;-90
2021/07/08 03:45:30;;;;;;;11.82;4.03;;;20.60;82.30;;;;;;5062172;28;20180;-90
2021/07/08 03:47:56;;;;;;;9.00;3.58;;;20.50;82.90;;;;;;5062389;28;20175;-90
2021/07/08 03:50:23;;;;;;;3.40;3.10;;;20.40;83.10;;;;;;5058352;28;20248;-91
2021/07/08 03:52:48;;;;;;;3.30;3.00;;;20.40;83.40;;;;;;5046204;28;20219;-91
2021/07/08 03:55:17;;;;;;;3.30;3.00;;;20.40;83.50;;;;;;5061445;28;20180;-90
2021/07/08 03:57:55;;;;;;;5.00;2.85;;;20.30;83.80;;;;;;5063540;28;20189;-90
2021/07/08 04:00:32;;;;;;;4.55;2.95;;;20.30;84.50;;;;;;5052338;28;20202;-90
2021/07/08 04:03:01;;;;;;;6.20;3.17;;;20.30;83.90;;;;;;5047471;28;20273;-89
2021/07/08 04:05:27;;;;;;;4.53;3.28;;;20.20;84.30;;;;;;5046718;28;20259;-91
2021/07/08 04:07:53;;;;;;;3.55;3.25;;;20.20;84.30;;;;;;5029669;28;20189;-92
2021/07/08 04:10:19;;;;;;;6.85;2.92;;;20.20;84.20;;;;;;5046226;28;20202;-90
2021/07/08 04:12:46;;;;;;;9.80;3.65;;;20.10;84.90;;;;;;5045022;28;20217;-90
2021/07/08 04:15:13;;;;;;;3.47;3.05;;;20.10;85.30;;;;;;5046765;28;20249;-91
2021/07/08 04:17:39;;;;;;;5.18;3.28;;;20.10;84.90;;;;;;5046923;28;20182;-93
2021/07/08 04:20:07;;;;;;;3.47;3.17;;;20.10;85.20;;;;;;5048046;28;20191;-90
2021/07/08 04:22:33;;;;;;;3.83;3.38;;;20.10;85.60;;;;;;5046271;28;20206;-90
2021/07/08 04:24:59;;;;;;;3.92;3.45;;;20.20;85.00;;;;;;5046318;28;20178;-89
2021/07/08 04:27:27;;;;;;;3.90;3.58;;;20.20;84.30;;;;;;5029425;28;20219;-90
2021/07/08 04:29:53;;;;;;;4.00;3.70;;;20.20;84.80;;;;;;5046503;28;20205;-90
2021/07/08 04:32:19;;;;;;;5.90;3.33;;;20.00;85.50;;;;;;5045513;28;20210;-90
2021/07/08 04:34:44;;;;;;;5.15;3.28;;;20.00;85.90;;;;;;5046709;28;20618;-90
2021/07/08 04:37:10;;;;;;;4.40;3.53;;;20.10;85.40;;;;;;5028964;28;20221;-90
2021/07/08 04:39:36;;;;;;;8.25;3.50;;;20.10;85.00;;;;;;5028230;28;20293;-91
2021/07/08 04:42:03;;;;;;;4.45;3.20;;;20.20;84.90;;;;;;5028309;28;20181;-91
2021/07/08 04:44:29;;;;;;;4.88;3.13;;;20.20;85.00;;;;;;5046073;28;20204;-91
2021/07/08 04:46:54;;;;;;;13.32;3.45;;;20.10;85.20;;;;;;5028569;28;20203;-90
2021/07/08 04:49:20;;;;;;;3.63;3.33;;;20.10;85.30;;;;;;5046542;28;20193;-91
2021/07/08 04:51:49;;;;;;;3.70;3.30;;;20.20;85.50;;;;;;5045991;28;20191;-91
2021/07/08 04:54:15;;;;;;;5.65;3.58;;;20.20;85.60;;;;;;5046018;28;20185;-91
2021/07/08 04:56:44;;;;;;;7.53;3.30;;;20.30;85.30;;;;;;5012773;28;20197;-90
2021/07/08 04:59:10;;;;;;;3.42;3.22;;;20.20;85.70;;;;;;5048018;28;20205;-90
2021/07/08 05:01:36;;;;;;;3.13;2.80;;;20.30;85.40;;;;;;5047557;28;20217;-89
2021/07/08 05:04:01;;;;;;;4.65;2.90;;;20.40;84.50;;;;;;4998148;28;20182;-90
2021/07/08 05:06:31;;;;;;;3.30;3.00;;;20.50;84.10;;;;;;5027908;28;20220;-88
2021/07/08 05:08:57;;;;;;;4.95;3.50;;;20.40;84.40;;;;;;5011674;28;20210;-88
2021/07/08 05:11:23;;;;;;;3.78;3.03;;;20.40;84.40;;;;;;5018112;28;20196;-88
2021/07/08 05:13:49;;;;;;;5.18;3.13;;;20.50;84.00;;;;;;5004124;28;20210;-91
2021/07/08 05:16:14;;;;;;;4.80;3.33;;;20.40;84.30;;;;;;5026389;28;20191;-90
2021/07/08 05:18:40;;;;;;;4.68;3.15;;;20.30;84.90;;;;;;5038942;28;20239;-90
2021/07/08 05:21:06;;;;;;;4.63;3.20;;;20.30;85.20;;;;;;5041308;28;20177;-90
2021/07/08 05:23:33;;;;;;;3.10;2.90;;;20.30;84.80;;;;;;5043425;28;20189;-89
2021/07/08 05:25:59;;;;;;;3.80;3.40;;;20.40;84.40;;;;;;5044089;28;20957;-90
2021/07/08 05:28:25;;;;;;;5.05;3.55;;;20.50;84.00;;;;;;5027471;28;20209;-89
2021/07/08 05:30:51;;;;;;;4.38;3.58;;;20.50;84.10;;;;;;5044447;28;20244;-89
2021/07/08 05:33:17;;;;;;;3.40;3.20;;;20.40;84.50;;;;;;5027368;28;20216;-88
2021/07/08 05:35:43;;;;;;;3.83;3.20;;;20.50;84.20;;;;;;5044036;28;20342;-88
2021/07/08 05:38:12;;;;;;;4.03;3.20;;;20.60;83.80;;;;;;5028660;28;20208;-92
2021/07/08 05:40:37;;;;;;;7.22;4.10;;;20.70;83.40;;;;;;5029147;28;20176;-92
2021/07/08 05:43:05;;;;;;;5.40;3.25;;;20.70;83.70;;;;;;5029222;28;20189;-92
2021/07/08 05:45:31;;;;;;;6.20;3.67;;;20.80;83.80;;;;;;5048120;28;20211;-89
2021/07/08 05:47:57;;;;;;;5.55;3.90;;;20.70;83.40;;;;;;5046960;28;20199;-90
2021/07/08 05:50:26;;;;;;;4.25;3.67;;;20.90;83.00;;;;;;5012876;28;20211;-90
2021/07/08 05:53:09;;;;;;;4.50;3.30;;;20.80;83.70;;;;;;5029005;28;20279;-92
2021/07/08 05:55:35;;;;;;;3.95;3.65;;;20.70;84.10;;;;;;5034806;28;20271;-93
2021/07/08 05:58:04;;;;;;;6.43;4.22;;;20.70;85.10;;;;;;5024427;28;20227;-91
2021/07/08 06:00:30;;;;;;;6.15;3.55;;;20.70;84.70;;;;;;5007563;28;20203;-91
2021/07/08 06:02:55;;;;;;;6.82;5.00;;;20.60;85.60;;;;;;5005591;28;20202;-91
2021/07/08 06:05:21;;;;;;;5.38;3.60;;;20.60;85.40;;;;;;5038130;28;20312;-91
2021/07/08 06:07:47;;;;;;;5.97;3.35;;;20.70;85.20;;;;;;5027456;28;20865;-91
2021/07/08 06:10:13;;;;;;;5.85;3.53;;;20.80;84.90;;;;;;5007479;28;20212;-93
2021/07/08 06:12:41;;;;;;;3.40;3.10;;;20.90;84.00;;;;;;5016333;28;20215;-90
2021/07/08 06:15:07;;;;;;;4.25;3.85;;;20.90;83.70;;;;;;5049398;28;20207;-91
2021/07/08 06:17:33;;;;;;;6.15;3.70;;;21.00;83.50;;;;;;5033509;28;20184;-91
2021/07/08 06:20:02;;;;;;;4.72;3.50;;;20.90;83.80;;;;;;5020862;28;20206;-90
2021/07/08 06:22:28;;;;;;;4.05;3.70;;;20.90;84.20;;;;;;5041101;28;20185;-91
2021/07/08 06:24:54;;;;;;;4.43;3.60;;;21.00;84.70;;;;;;5034715;28;20185;-91
2021/07/08 06:30:43;;;;;;;3.90;3.60;;;21.00;84.70;;;;;;5029867;28;20214;-90
2021/07/08 06:33:09;;;;;;;3.55;3.10;;;20.90;84.90;;;;;;5002150;28;20212;-90
2021/07/08 06:35:35;;;;;;;7.05;3.50;;;21.10;84.40;;;;;;5018614;28;20264;-91
2021/07/08 06:38:01;;;;;;;3.70;3.40;;;21.20;84.00;;;;;;5037738;28;20193;-92
2021/07/08 06:40:29;;;;;;;3.63;3.28;;;21.20;83.00;;;;;;5040508;28;20195;-92
2021/07/08 06:42:58;;;;;;;5.55;3.22;;;21.30;82.40;;;;;;5026105;28;20184;-93
2021/07/08 06:45:25;;;;;;;4.00;3.70;;;21.40;82.50;;;;;;5022332;28;20216;-91
2021/07/08 06:47:52;;;;;;;3.20;2.90;;;21.40;82.50;;;;;;5024481;28;20209;-93
2021/07/08 06:50:21;;;;;;;4.22;3.17;;;21.50;82.90;;;;;;5016791;28;20274;-92
2021/07/08 06:52:47;;;;;;;5.32;3.50;;;21.60;82.00;;;;;;5012850;28;20303;-93
2021/07/08 06:55:14;;;;;;;5.03;2.90;;;21.60;80.90;;;;;;5021158;28;20173;-91
2021/07/08 06:57:52;;;;;;;3.80;3.35;;;21.60;80.30;;;;;;5033536;28;20192;-90
2021/07/08 07:00:26;;;;;;;12.80;3.70;;;21.60;80.30;;;;;;5031909;28;20288;-92
2021/07/08 07:07:58;;;;;;;3.47;3.10;;;21.60;79.00;;;;;;5019273;28;20336;-91
2021/07/08 07:10:26;;;;;;;4.00;3.08;;;21.60;79.60;;;;;;5020100;28;20186;-91
2021/07/08 07:12:55;;;;;;;5.40;3.47;;;21.60;79.50;;;;;;4992085;28;20216;-93
2021/07/08 07:15:25;;;;;;;6.40;3.47;;;21.60;80.10;;;;;;5018172;28;20199;-93
2021/07/08 07:17:57;;;;;;;4.25;3.40;;;21.60;80.50;;;;;;4981520;28;20213;-91
2021/07/08 07:20:22;;;;;;;4.50;3.20;;;21.60;80.80;;;;;;4984308;28;20228;-91
2021/07/08 07:22:49;;;;;;;6.10;3.22;;;21.70;80.50;;;;;;5017811;28;20219;-92
2021/07/08 07:25:20;;;;;;;4.22;3.35;;;21.90;79.50;;;;;;5025177;28;20209;-91
2021/07/08 07:27:49;;;;;;;6.45;3.30;;;21.90;78.60;;;;;;5022128;28;20201;-90
2021/07/08 07:30:39;;;;;;;3.58;2.97;;;22.10;77.40;;;;;;5016966;28;20640;-91
2021/07/08 07:33:11;;;;;;;5.10;3.42;;;22.20;76.50;;;;;;5007092;28;20304;-91
2021/07/08 07:35:37;;;;;;;3.70;3.22;;;22.30;76.90;;;;;;5002427;28;20182;-92
2021/07/08 07:38:07;;;;;;;4.53;3.13;;;22.30;76.20;;;;;;5029037;28;20181;-91
2021/07/08 07:40:48;;;;;;;3.60;3.00;;;22.30;75.90;;;;;;4996692;28;20192;-93
2021/07/08 07:43:49;;;;;;;11.38;4.72;;;22.40;76.50;;;;;;5007518;28;20182;-91
2021/07/08 07:49:48;;;;;;;4.93;3.00;;;22.60;75.30;;;;;;5020946;28;20212;-91
2021/07/08 07:56:22;;;;;;;4.53;3.10;;;22.50;74.90;;;;;;5025141;23;20245;-94
2021/07/08 07:59:17;;;;;;;2.97;2.50;;;22.50;74.30;;;;;;5017005;28;20198;-94
2021/07/08 08:02:39;;;;;;;3.95;2.78;;;22.60;74.40;;;;;;4919515;29;20210;-93
2021/07/08 08:14:09;;;;;;;3.90;2.65;;;23.00;73.70;;;;;;5001298;28;20226;-91
2021/07/08 08:17:00;;;;;;;5.15;2.90;;;23.00;73.30;;;;;;4991328;28;20430;-89
2021/07/08 08:19:41;;;;;;;;;;;;;;;;;;;;;
2021/07/08 08:22:47;;;;;;;3.75;2.90;;;22.80;74.50;;;;;;5007602;28;20293;-90
2021/07/08 08:25:38;;;;;;;5.47;3.25;;;23.00;73.30;;;;;;5021165;28;20233;-90
2021/07/08 08:28:41;;;;;;;5.30;3.30;;;22.90;74.70;;;;;;5005359;28;20190;-89
2021/07/08 08:31:24;;;;;;;4.15;3.25;;;22.70;75.20;;;;;;4995263;28;20973;-89
2021/07/08 08:33:49;;;;;;;8.95;3.28;;;22.50;76.70;;;;;;5006563;28;20226;-92
2021/07/08 08:36:15;;;;;;;8.20;3.15;;;22.20;77.50;;;;;;4991245;28;20213;-89
2021/07/08 08:38:46;;;;;;;6.43;3.17;;;22.20;78.00;;;;;;5008032;28;20202;-88
2021/07/08 08:41:12;;;;;;;3.58;3.17;;;22.00;79.20;;;;;;5010866;28;20189;-90
2021/07/08 08:43:40;;;;;;;5.03;3.17;;;21.90;80.40;;;;;;5001204;28;20300;-89
2021/07/08 08:46:12;;;;;;;3.72;3.20;;;21.60;82.30;;;;;;4984643;28;20193;-90
2021/07/08 08:48:45;;;;;;;5.18;3.17;;;21.40;83.40;;;;;;5007258;28;20246;-91
2021/07/08 08:51:11;;;;;;;7.53;4.53;;;21.30;84.30;;;;;;5016789;28;20206;-91
2021/07/08 08:53:45;;;;;;;4.05;3.33;;;21.40;87.00;;;;;;5005448;28;20246;-88
2021/07/08 08:56:19;;;;;;;3.95;3.65;;;21.20;86.70;;;;;;4981949;28;20658;-88
2021/07/08 08:58:48;;;;;;;3.58;3.22;;;20.90;89.30;;;;;;4996685;28;20194;-89
2021/07/08 09:01:17;;;;;;;4.45;3.38;;;20.90;88.90;;;;;;4974223;28;20200;-89
2021/07/08 09:03:49;;;;;;;4.40;3.42;;;21.00;87.80;;;;;;4982887;28;20245;-92
2021/07/08 09:06:17;;;;;;;4.80;3.72;;;21.00;88.50;;;;;;5019350;28;20189;-93
2021/07/08 09:08:50;;;;;;;4.57;3.92;;;20.90;87.80;;;;;;5009215;28;20198;-92
2021/07/08 09:11:27;;;;;;;3.70;3.15;;;20.80;87.40;;;;;;4999069;28;20539;-91
2021/07/08 09:14:03;;;;;;;6.72;3.90;;;20.70;89.70;;;;;;5005106;28;20216;-92
2021/07/08 09:16:37;;;;;;;4.82;3.85;;;20.70;91.20;;;;;;5017768;28;20177;-92
2021/07/08 09:19:03;;;;;;;4.32;4.03;;;20.60;90.70;;;;;;4997539;28;20185;-92
2021/07/08 09:21:51;;;;;;;;;;;;;;;;;;;;;
2021/07/08 09:28:59;;;;;;;3.92;3.53;;;20.40;92.80;;;;;;4957353;29;20192;-90
2021/07/08 09:41:57;;;;;;;4.90;4.40;;;20.40;93.10;;;;;;4900918;28;20292;-93
2021/07/08 09:52:34;;;;;;;;;;;;;;;;;;;;;
2021/07/08 09:57:48;;;;;;;5.50;4.97;;;20.20;96.40;;;;;;5058650;28;20220;-92
2021/07/08 10:00:22;;;;;;;8.95;5.45;;;20.30;95.50;;;;;;5036484;28;20399;-92
2021/07/08 10:02:50;;;;;;;5.93;5.53;;;20.10;96.20;;;;;;5040260;28;20199;-92
2021/07/08 10:05:17;;;;;;;5.93;5.43;;;20.10;96.00;;;;;;5031833;28;20200;-91
2021/07/08 10:07:44;;;;;;;6.13;5.32;;;19.90;95.90;;;;;;5058296;28;20187;-91
2021/07/08 10:10:11;;;;;;;7.00;5.70;;;20.00;95.60;;;;;;5048567;28;20211;-91
2021/07/08 10:12:38;;;;;;;5.78;5.22;;;19.90;96.90;;;;;;5025691;28;20205;-91
2021/07/08 10:15:09;;;;;;;7.50;5.28;;;20.00;96.90;;;;;;5060500;28;20265;-92
2021/07/08 10:17:41;;;;;;;6.32;5.72;;;20.30;95.40;;;;;;5048894;28;20200;-93
2021/07/08 10:20:10;;;;;;;5.85;5.32;;;20.30;95.40;;;;;;5046523;28;20200;-91
2021/07/08 10:22:38;;;;;;;5.43;4.93;;;20.40;94.50;;;;;;5061474;28;20286;-92
2021/07/08 10:25:09;;;;;;;5.82;4.95;;;20.20;93.00;;;;;;5029867;28;20198;-92
2021/07/08 10:27:39;;;;;;;5.15;4.75;;;20.40;94.20;;;;;;5040244;28;20570;-93
2021/07/08 10:30:06;;;;;;;5.85;4.65;;;20.50;94.30;;;;;;5041885;28;20318;-92
2021/07/08 10:32:33;;;;;;;5.57;5.07;;;20.60;93.90;;;;;;5026044;28;20207;-91
2021/07/08 10:34:59;;;;;;;4.80;4.40;;;20.50;93.90;;;;;;5043008;28;20202;-92
2021/07/08 10:37:25;;;;;;;5.00;4.60;;;20.50;93.30;;;;;;5065397;28;20248;-91
2021/07/08 10:39:51;;;;;;;5.15;4.65;;;20.40;93.70;;;;;;5066201;28;20244;-92
2021/07/08 10:42:41;;;;;;;4.90;4.50;;;20.50;93.90;;;;;;5064437;28;20193;-93
2021/07/08 10:45:07;;;;;;;7.85;4.97;;;20.60;92.80;;;;;;5067135;28;20437;-93
2021/07/08 10:47:40;;;;;;;5.07;4.68;;;20.60;95.70;;;;;;5048294;28;20195;-92
2021/07/08 10:50:36;;;;;;;4.65;4.22;;;20.30;97.00;;;;;;5048578;28;20196;-92
2021/07/08 10:53:15;;;;;;;4.47;4.18;;;20.40;95.70;;;;;;5041504;28;20213;-93
2021/07/08 10:55:45;;;;;;;4.90;4.30;;;20.30;97.60;;;;;;5047774;28;20204;-94
2021/07/08 10:58:49;;;;;;;5.20;4.75;;;20.40;96.40;;;;;;5030241;28;20169;-93
2021/07/08 11:01:26;;;;;;;5.30;4.85;;;20.30;96.50;;;;;;5046233;28;20199;-92
2021/07/08 11:04:01;;;;;;;5.03;4.63;;;20.40;96.00;;;;;;5025935;28;20188;-93
2021/07/08 11:06:31;;;;;;;4.35;4.05;;;20.40;96.50;;;;;;5025296;28;20176;-93
2021/07/08 11:09:13;;;;;;;5.13;4.63;;;20.50;96.90;;;;;;5023469;28;20257;-93
2021/07/08 11:11:39;;;;;;;6.43;4.97;;;20.30;96.10;;;;;;5023833;28;20212;-94
2021/07/08 11:14:07;;;;;;;4.40;4.00;;;20.20;96.50;;;;;;5023494;28;20216;-93
2021/07/08 11:17:11;;;;;;;4.47;4.07;;;20.10;97.90;;;;;;5025299;28;20177;-93
2021/07/08 11:19:44;;;;;;;4.78;4.38;;;20.20;96.90;;;;;;5029708;28;20188;-92
2021/07/08 11:22:26;;;;;;;4.60;3.97;;;19.90;97.70;;;;;;5009268;28;20233;-94
2021/07/08 11:24:54;;;;;;;3.80;3.60;;;19.90;98.20;;;;;;5027616;28;20185;-92
2021/07/08 11:27:33;;;;;;;4.13;3.80;;;19.70;98.00;;;;;;5027552;28;20230;-93
2021/07/08 11:30:24;;;;;;;3.70;3.40;;;19.70;99.00;;;;;;5050765;28;20307;-95
2021/07/08 11:32:56;;;;;;;2.70;2.50;;;19.60;98.60;;;;;;5030891;28;20201;-92
2021/07/08 11:35:39;;;;;;;3.30;3.00;;;19.70;96.50;;;;;;5032012;28;20177;-94
2021/07/08 11:38:17;;;;;;;4.32;3.92;;;19.90;96.90;;;;;;5032113;28;20264;-93
2021/07/08 11:40:50;;;;;;;4.15;3.85;;;19.80;97.80;;;;;;5045397;28;20204;-94
2021/07/08 11:43:33;;;;;;;3.72;3.42;;;19.80;98.40;;;;;;5033909;28;20180;-94
2021/07/08 11:46:12;;;;;;;4.00;2.28;;;19.90;98.20;;;;;;5030254;28;20180;-93
2021/07/08 11:48:43;;;;;;;4.90;1.98;;;20.00;96.30;;;;;;5049688;28;20180;-94
2021/07/08 11:51:31;;;;;;;2.85;1.70;;;20.20;96.20;;;;;;5047973;28;20201;-94
2021/07/08 11:53:57;;;;;;;2.85;1.60;;;20.10;95.50;;;;;;5027788;28;20774;-92
2021/07/08 11:56:24;;;;;;;1.80;1.70;;;20.20;95.10;;;;;;5050213;28;20338;-94
2021/07/08 11:58:52;;;;;;;2.72;1.80;;;20.20;95.50;;;;;;5031366;28;20177;-93
2021/07/08 12:01:24;;;;;;;3.50;2.08;;;20.30;95.70;;;;;;5032457;28;20204;-93
2021/07/08 12:03:54;;;;;;;2.17;2.08;;;20.40;94.70;;;;;;5033954;28;20200;-94
2021/07/08 12:06:28;;;;;;;2.60;2.40;;;20.60;95.30;;;;;;5036060;28;20153;-95
2021/07/08 12:08:56;;;;;;;3.03;2.55;;;20.60;91.10;;;;;;5033414;28;20282;-93
2021/07/08 12:11:40;;;;;;;2.90;2.70;;;20.60;89.60;;;;;;5051442;28;20198;-94
2021/07/08 12:14:15;;;;;;;2.80;2.60;;;20.80;89.50;;;;;;5032386;28;20203;-96
2021/07/08 12:16:46;;;;;;;2.88;2.58;;;21.00;89.60;;;;;;5033090;28;20205;-96
2021/07/08 12:19:19;;;;;;;3.33;3.03;;;20.90;91.60;;;;;;5035302;28;20720;-95
2021/07/08 12:21:47;;;;;;;3.35;3.05;;;21.00;87.30;;;;;;5037167;28;20198;-95
2021/07/08 12:24:25;;;;;;;2.95;2.70;;;21.10;88.20;;;;;;5037298;28;20181;-95
2021/07/08 12:26:54;;;;;;;3.60;2.97;;;21.20;87.00;;;;;;5036648;28;20610;-94
2021/07/08 12:29:28;;;;;;;3.30;3.08;;;21.30;85.30;;;;;;5054203;28;20184;-95
2021/07/08 12:34:44;;;;;;;3.30;3.00;;;21.30;85.20;;;;;;5035272;28;20241;-91
2021/07/08 12:37:20;;;;;;;3.50;3.20;;;21.40;86.60;;;;;;5016664;28;20656;-90
2021/07/08 12:40:25;;;;;;;3.38;3.13;;;21.40;85.90;;;;;;5006557;28;20213;-89
2021/07/08 12:42:50;;;;;;;4.53;3.13;;;21.40;87.00;;;;;;4995643;28;20665;-94
2021/07/08 12:45:23;;;;;;;3.50;3.00;;;21.20;88.40;;;;;;4987121;28;20197;-94
2021/07/08 12:47:52;;;;;;;3.45;3.15;;;21.00;89.20;;;;;;5021141;28;20192;-94
2021/07/08 12:50:21;;;;;;;7.50;3.45;;;21.10;88.70;;;;;;5002545;28;20220;-94
2021/07/08 12:52:47;;;;;;;3.92;3.50;;;21.00;87.90;;;;;;5001858;28;20815;-94
2021/07/08 12:55:52;;;;;;;4.68;3.47;;;21.00;87.10;;;;;;5020350;28;20180;-93
2021/07/08 12:58:24;;;;;;;5.15;3.15;;;21.20;87.60;;;;;;5018188;28;20177;-94
2021/07/08 13:00:51;;;;;;;4.05;3.53;;;21.30;87.90;;;;;;5001845;28;20216;-94
2021/07/08 13:03:22;;;;;;;3.50;3.20;;;21.30;86.90;;;;;;5002256;28;20661;-94
2021/07/08 13:05:49;;;;;;;3.53;2.95;;;21.40;87.80;;;;;;4994128;28;20186;-94
2021/07/08 13:08:17;;;;;;;3.30;2.90;;;21.30;85.50;;;;;;5022503;28;20759;-94
2021/07/08 13:10:49;;;;;;;3.90;3.53;;;21.40;86.40;;;;;;5017927;28;20240;-94
2021/07/08 13:16:22;;;;;;;3.88;3.03;;;21.40;88.60;;;;;;5010410;28;20192;-91
2021/07/08 13:18:48;;;;;;;3.33;3.05;;;21.50;85.50;;;;;;5001609;28;20197;-91
2021/07/08 13:21:38;;;;;;;2.95;2.70;;;21.60;85.30;;;;;;5019076;28;20178;-90
2021/07/08 13:25:05;;;;;;;2.78;2.58;;;21.80;83.80;;;;;;5018145;28;20192;-91
2021/07/08 13:27:38;;;;;;;3.92;3.20;;;21.90;85.50;;;;;;5014918;28;20189;-90
2021/07/08 13:30:35;;;;;;;2.92;2.72;;;21.90;83.90;;;;;;5020124;28;20197;-92
2021/07/08 13:33:44;;;;;;;2.78;2.58;;;21.80;83.50;;;;;;5015797;28;20216;-92
2021/07/08 13:36:32;;;;;;;2.80;2.60;;;21.70;84.10;;;;;;4983594;28;20197;-90
2021/07/08 13:39:05;;;;;;;2.75;2.40;;;21.70;84.30;;;;;;5003261;28;20210;-92
2021/07/08 13:41:39;;;;;;;2.50;2.40;;;21.60;84.70;;;;;;5019779;28;20189;-91
2021/07/08 13:44:31;;;;;;;2.78;2.30;;;21.60;86.20;;;;;;5019325;28;20177;-91
2021/07/08 13:47:03;;;;;;;2.90;2.70;;;21.60;85.70;;;;;;4995199;28;20212;-91
2021/07/08 13:49:43;;;;;;;2.92;2.72;;;21.60;85.80;;;;;;4999424;28;20220;-91
2021/07/08 13:58:26;;;;;;;3.00;2.75;;;21.60;86.50;;;;;;4922349;29;20226;-91
2021/07/08 14:01:00;;;;;;;3.97;2.90;;;21.40;86.70;;;;;;4954817;28;20205;-92
2021/07/08 14:03:29;;;;;;;3.15;2.80;;;21.40;88.30;;;;;;4992635;28;20709;-91
2021/07/08 14:05:58;;;;;;;3.83;3.30;;;21.40;88.10;;;;;;5011422;28;20206;-90
2021/07/08 14:08:29;;;;;;;5.63;3.05;;;21.30;88.80;;;;;;4999001;28;20189;-92
2021/07/08 14:11:07;;;;;;;2.50;2.30;;;21.30;87.20;;;;;;5007901;28;20177;-91
2021/07/08 14:13:34;;;;;;;3.00;2.80;;;21.30;86.00;;;;;;4998530;28;20712;-90
2021/07/08 14:16:00;;;;;;;3.05;2.80;;;21.30;86.20;;;;;;4995684;28;20206;-92
2021/07/08 14:18:26;;;;;;;2.90;2.70;;;21.30;86.70;;;;;;4986947;28;20193;-93
2021/07/08 14:20:53;;;;;;;2.80;2.60;;;21.50;86.30;;;;;;5012284;28;20182;-92
2021/07/08 14:25:56;;;;;;;2.80;2.60;;;21.50;86.90;;;;;;4994436;26;20220;-94
2021/07/08 14:28:25;;;;;;;2.55;2.35;;;21.60;86.60;;;;;;5022553;28;20641;-91
2021/07/08 14:30:51;;;;;;;2.75;2.55;;;21.70;88.10;;;;;;5022241;28;20173;-88
2021/07/08 14:33:19;;;;;;;2.47;2.28;;;21.70;86.80;;;;;;5023853;28;20285;-89
2021/07/08 14:35:46;;;;;;;2.80;2.60;;;21.90;82.70;;;;;;5023676;28;20199;-87
2021/07/08 14:38:13;;;;;;;2.63;2.53;;;21.90;82.90;;;;;;5025182;28;20177;-88
2021/07/08 14:40:39;;;;;;;2.55;2.35;;;22.00;84.30;;;;;;5025287;28;20184;-89
2021/07/08 14:43:05;;;;;;;2.75;2.55;;;22.00;83.00;;;;;;5022263;28;20208;-88
2021/07/08 14:45:34;;;;;;;3.45;2.65;;;22.00;83.20;;;;;;5023678;28;20209;-88
2021/07/08 14:48:00;;;;;;;3.60;2.65;;;22.20;82.60;;;;;;5023183;28;20190;-88
2021/07/08 14:50:26;;;;;;;3.60;2.83;;;22.30;84.40;;;;;;5021354;28;20236;-89
2021/07/08 14:52:52;;;;;;;4.10;2.78;;;22.40;82.60;;;;;;5023527;28;20319;-87
2021/07/08 14:55:18;;;;;;;4.85;2.92;;;22.60;82.00;;;;;;5023343;28;20220;-88